UAL703 KLAX-KDEN
Flight info
| Callsign | UAL703 |
|---|---|
| Flight time | 1h 39m |
| Altitude | 37000 |
| Route | ORCKA5 LAS J146 DICEE BUMMP SSKII4 |
| Aircraft | B788/H-VGDW/C |
Departure
| Time | 2026-04-23 22:17 |
|---|---|
| Airport | Los Angeles International Airport (KLAX) |
Arrival
| Time | 2026-04-23 23:56 |
|---|---|
| Airport | Denver International Airport (KDEN) |
| Time | Latitude | Longitude | Altitude | Speed | Heading |
|---|---|---|---|---|---|
| 2026-04-23 22:03 | 33.94184 | -118.39896 | 131 ft | 0 kts | 265° |
| 2026-04-23 22:04 | 33.94184 | -118.39890 | 131 ft | 3 kts | 265° |
| 2026-04-23 22:04 | 33.94186 | -118.39867 | 129 ft | 3 kts | 265° |
| 2026-04-23 22:05 | 33.94187 | -118.39848 | 131 ft | 0 kts | 265° |
| 2026-04-23 22:11 | 33.94187 | -118.39849 | 131 ft | 1 kts | 264° |
| 2026-04-23 22:11 | 33.94184 | -118.39855 | 121 ft | 1 kts | 221° |
| 2026-04-23 22:11 | 33.94180 | -118.39857 | 123 ft | 1 kts | 190° |
| 2026-04-23 22:12 | 33.94164 | -118.39854 | 123 ft | 5 kts | 164° |
| 2026-04-23 22:12 | 33.94117 | -118.39838 | 129 ft | 10 kts | 166° |
| 2026-04-23 22:12 | 33.94042 | -118.39827 | 127 ft | 12 kts | 174° |
| 2026-04-23 22:12 | 33.93944 | -118.39806 | 126 ft | 17 kts | 165° |
| 2026-04-23 22:13 | 33.93904 | -118.39762 | 123 ft | 5 kts | 92° |
| 2026-04-23 22:13 | 33.93910 | -118.39700 | 128 ft | 8 kts | 82° |
| 2026-04-23 22:13 | 33.93918 | -118.39615 | 131 ft | 16 kts | 83° |
| 2026-04-23 22:13 | 33.93934 | -118.39450 | 127 ft | 21 kts | 83° |
| 2026-04-23 22:14 | 33.93952 | -118.39270 | 127 ft | 22 kts | 83° |
| 2026-04-23 22:14 | 33.93972 | -118.39080 | 131 ft | 24 kts | 83° |
| 2026-04-23 22:14 | 33.93993 | -118.38883 | 131 ft | 24 kts | 82° |
| 2026-04-23 22:14 | 33.94013 | -118.38688 | 123 ft | 24 kts | 84° |
| 2026-04-23 22:15 | 33.94030 | -118.38493 | 131 ft | 23 kts | 84° |
| 2026-04-23 22:15 | 33.94051 | -118.38304 | 126 ft | 22 kts | 82° |
| 2026-04-23 22:15 | 33.94070 | -118.38116 | 129 ft | 23 kts | 83° |
| 2026-04-23 22:15 | 33.94033 | -118.37997 | 127 ft | 9 kts | 173° |
| 2026-04-23 22:16 | 33.93994 | -118.38025 | 127 ft | 15 kts | 243° |
| 2026-04-23 22:16 | 33.93942 | -118.38443 | 128 ft | 86 kts | 263° |
| 2026-04-23 22:16 | 33.93846 | -118.39434 | 132 ft | 150 kts | 263° |
| 2026-04-23 22:16 | 33.93690 | -118.40821 | 586 ft | 172 kts | 259° |
| 2026-04-23 22:17 | 33.93555 | -118.42364 | 1073 ft | 199 kts | 262° |
| 2026-04-23 22:17 | 33.93364 | -118.44083 | 1934 ft | 212 kts | 262° |
| 2026-04-23 22:17 | 33.93150 | -118.45864 | 2777 ft | 222 kts | 257° |
| 2026-04-23 22:17 | 33.92546 | -118.47725 | 3158 ft | 254 kts | 246° |
| 2026-04-23 22:18 | 33.91821 | -118.49747 | 3911 ft | 266 kts | 248° |
| 2026-04-23 22:18 | 33.91108 | -118.51821 | 4866 ft | 272 kts | 249° |
| 2026-04-23 22:18 | 33.90383 | -118.53949 | 5869 ft | 274 kts | 249° |
| 2026-04-23 22:18 | 33.89649 | -118.56078 | 6890 ft | 275 kts | 249° |
| 2026-04-23 22:19 | 33.88924 | -118.58173 | 7948 ft | 273 kts | 249° |
| 2026-04-23 22:19 | 33.88194 | -118.60283 | 8963 ft | 273 kts | 249° |
| 2026-04-23 22:19 | 33.87464 | -118.62401 | 9919 ft | 275 kts | 249° |
| 2026-04-23 22:19 | 33.86689 | -118.64564 | 10416 ft | 294 kts | 244° |
| 2026-04-23 22:20 | 33.85198 | -118.66417 | 10655 ft | 329 kts | 213° |
| 2026-04-23 22:20 | 33.82943 | -118.67305 | 11134 ft | 353 kts | 187° |
| 2026-04-23 22:20 | 33.80480 | -118.66955 | 12010 ft | 367 kts | 165° |
| 2026-04-23 22:20 | 33.78199 | -118.65451 | 12781 ft | 382 kts | 142° |
| 2026-04-23 22:21 | 33.76494 | -118.63023 | 13528 ft | 395 kts | 121° |
| 2026-04-23 22:21 | 33.75538 | -118.59845 | 14220 ft | 404 kts | 98° |
| 2026-04-23 22:21 | 33.75533 | -118.56526 | 14919 ft | 407 kts | 77° |
| 2026-04-23 22:21 | 33.76450 | -118.53315 | 15600 ft | 406 kts | 57° |
| 2026-04-23 22:22 | 33.78094 | -118.50574 | 16243 ft | 403 kts | 39° |
| 2026-04-23 22:22 | 33.80349 | -118.48639 | 16932 ft | 396 kts | 19° |
| 2026-04-23 22:22 | 33.82946 | -118.47583 | 17569 ft | 393 kts | 8° |
| 2026-04-23 22:22 | 33.85606 | -118.46765 | 18271 ft | 397 kts | 8° |
| 2026-04-23 22:23 | 33.88250 | -118.45840 | 18828 ft | 405 kts | 12° |
| 2026-04-23 22:23 | 33.90904 | -118.44502 | 19027 ft | 424 kts | 24° |
| 2026-04-23 22:23 | 33.93333 | -118.42422 | 19028 ft | 430 kts | 38° |
| 2026-04-23 22:23 | 33.95331 | -118.39736 | 19033 ft | 433 kts | 51° |
| 2026-04-23 22:24 | 33.97021 | -118.36744 | 19027 ft | 432 kts | 52° |
| 2026-04-23 22:24 | 33.98697 | -118.33732 | 19026 ft | 433 kts | 52° |
| 2026-04-23 22:24 | 34.00395 | -118.30736 | 19029 ft | 432 kts | 51° |
| 2026-04-23 22:24 | 34.02107 | -118.27742 | 19180 ft | 435 kts | 52° |
| 2026-04-23 22:25 | 34.03815 | -118.24736 | 19882 ft | 435 kts | 52° |
| 2026-04-23 22:25 | 34.05522 | -118.21715 | 20425 ft | 440 kts | 52° |
| 2026-04-23 22:25 | 34.07255 | -118.18649 | 21002 ft | 444 kts | 52° |
| 2026-04-23 22:25 | 34.08999 | -118.15569 | 21555 ft | 448 kts | 52° |
| 2026-04-23 22:26 | 34.10764 | -118.12448 | 22103 ft | 452 kts | 52° |
| 2026-04-23 22:26 | 34.12542 | -118.09298 | 22623 ft | 456 kts | 52° |
| 2026-04-23 22:26 | 34.14311 | -118.06160 | 23140 ft | 460 kts | 52° |
| 2026-04-23 22:26 | 34.16122 | -118.02946 | 23622 ft | 464 kts | 52° |
| 2026-04-23 22:27 | 34.17942 | -117.99715 | 24066 ft | 467 kts | 52° |
| 2026-04-23 22:27 | 34.19769 | -117.96465 | 24512 ft | 469 kts | 52° |
| 2026-04-23 22:27 | 34.21609 | -117.93191 | 24862 ft | 473 kts | 52° |
| 2026-04-23 22:27 | 34.23469 | -117.89879 | 25262 ft | 476 kts | 52° |
| 2026-04-23 22:28 | 34.25327 | -117.86564 | 25681 ft | 478 kts | 52° |
| 2026-04-23 22:28 | 34.27202 | -117.83219 | 26070 ft | 481 kts | 52° |
| 2026-04-23 22:28 | 34.29086 | -117.79854 | 26479 ft | 484 kts | 52° |
| 2026-04-23 22:28 | 34.30984 | -117.76463 | 26854 ft | 488 kts | 52° |
| 2026-04-23 22:29 | 34.32884 | -117.73059 | 27329 ft | 489 kts | 52° |
| 2026-04-23 22:29 | 34.34794 | -117.69644 | 27634 ft | 494 kts | 51° |
| 2026-04-23 22:29 | 34.36824 | -117.66285 | 27997 ft | 495 kts | 50° |
| 2026-04-23 22:29 | 34.38845 | -117.62878 | 28331 ft | 499 kts | 51° |
| 2026-04-23 22:30 | 34.40859 | -117.59439 | 28713 ft | 501 kts | 50° |
| 2026-04-23 22:30 | 34.42909 | -117.56009 | 29045 ft | 504 kts | 50° |
| 2026-04-23 22:30 | 34.44985 | -117.52567 | 29400 ft | 506 kts | 50° |
| 2026-04-23 22:30 | 34.47056 | -117.49092 | 29743 ft | 509 kts | 50° |
| 2026-04-23 22:31 | 34.49126 | -117.45588 | 30071 ft | 512 kts | 50° |
| 2026-04-23 22:31 | 34.51210 | -117.42075 | 30345 ft | 515 kts | 50° |
| 2026-04-23 22:31 | 34.53280 | -117.38602 | 30607 ft | 517 kts | 50° |
| 2026-04-23 22:31 | 34.55390 | -117.35050 | 30867 ft | 520 kts | 50° |
| 2026-04-23 22:32 | 34.57504 | -117.31476 | 31133 ft | 522 kts | 50° |
| 2026-04-23 22:32 | 34.59627 | -117.27884 | 31369 ft | 524 kts | 50° |
| 2026-04-23 22:32 | 34.61762 | -117.24276 | 31607 ft | 527 kts | 50° |
| 2026-04-23 22:32 | 34.63912 | -117.20640 | 31837 ft | 529 kts | 50° |
| 2026-04-23 22:33 | 34.66032 | -117.17046 | 32061 ft | 531 kts | 50° |
| 2026-04-23 22:33 | 34.68189 | -117.13385 | 32273 ft | 533 kts | 50° |
| 2026-04-23 22:33 | 34.70355 | -117.09708 | 32486 ft | 536 kts | 50° |
| 2026-04-23 22:33 | 34.72529 | -117.06015 | 32694 ft | 538 kts | 50° |
| 2026-04-23 22:34 | 34.74713 | -117.02297 | 32923 ft | 540 kts | 50° |
| 2026-04-23 22:34 | 34.76888 | -116.98591 | 33134 ft | 542 kts | 50° |
| 2026-04-23 22:34 | 34.79082 | -116.94849 | 33356 ft | 544 kts | 50° |
| 2026-04-23 22:34 | 34.81284 | -116.91092 | 33543 ft | 546 kts | 50° |
| 2026-04-23 22:35 | 34.83462 | -116.87370 | 33769 ft | 547 kts | 50° |
| 2026-04-23 22:35 | 34.85695 | -116.83551 | 34023 ft | 548 kts | 50° |
| 2026-04-23 22:35 | 34.87882 | -116.79804 | 34253 ft | 548 kts | 50° |
| 2026-04-23 22:35 | 34.90115 | -116.75977 | 34470 ft | 548 kts | 50° |
| 2026-04-23 22:36 | 34.92368 | -116.72291 | 34686 ft | 544 kts | 43° |
| 2026-04-23 22:36 | 34.94925 | -116.68901 | 34862 ft | 543 kts | 41° |
| 2026-04-23 22:36 | 34.97507 | -116.65522 | 35084 ft | 543 kts | 41° |
| 2026-04-23 22:36 | 35.00093 | -116.62122 | 35301 ft | 544 kts | 42° |
| 2026-04-23 22:37 | 35.02617 | -116.58785 | 35519 ft | 544 kts | 42° |
| 2026-04-23 22:37 | 35.05198 | -116.55376 | 35729 ft | 545 kts | 41° |
| 2026-04-23 22:37 | 35.07767 | -116.51990 | 35967 ft | 545 kts | 41° |
| 2026-04-23 22:37 | 35.10334 | -116.48600 | 36175 ft | 545 kts | 41° |
| 2026-04-23 22:38 | 35.12918 | -116.45177 | 36400 ft | 545 kts | 41° |
| 2026-04-23 22:38 | 35.15477 | -116.41785 | 36631 ft | 545 kts | 41° |
| 2026-04-23 22:38 | 35.18058 | -116.38365 | 36883 ft | 544 kts | 41° |
| 2026-04-23 22:38 | 35.20613 | -116.34977 | 36985 ft | 547 kts | 41° |
| 2026-04-23 22:39 | 35.25785 | -116.28100 | 36982 ft | 547 kts | 41° |
| 2026-04-23 22:39 | 35.30921 | -116.21259 | 36982 ft | 543 kts | 41° |
| 2026-04-23 22:40 | 35.36071 | -116.14394 | 36989 ft | 552 kts | 41° |
| 2026-04-23 22:41 | 35.43915 | -116.03893 | 37004 ft | 562 kts | 41° |
| 2026-04-23 22:41 | 35.49202 | -115.96800 | 37008 ft | 562 kts | 42° |
| 2026-04-23 22:42 | 35.53978 | -115.89165 | 37036 ft | 572 kts | 59° |
| 2026-04-23 22:42 | 35.57524 | -115.80387 | 37187 ft | 573 kts | 61° |
| 2026-04-23 22:42 | 35.59212 | -115.75937 | 37335 ft | 575 kts | 62° |
| 2026-04-23 22:43 | 35.60887 | -115.71468 | 37475 ft | 576 kts | 61° |
| 2026-04-23 22:43 | 35.62617 | -115.67004 | 37610 ft | 577 kts | 60° |
| 2026-04-23 22:43 | 35.64328 | -115.62634 | 37764 ft | 578 kts | 61° |
| 2026-04-23 22:43 | 35.66045 | -115.58155 | 37892 ft | 579 kts | 62° |
| 2026-04-23 22:44 | 35.67745 | -115.53656 | 38015 ft | 580 kts | 61° |
| 2026-04-23 22:44 | 35.69465 | -115.49153 | 38180 ft | 581 kts | 61° |
| 2026-04-23 22:44 | 35.71200 | -115.44653 | 38316 ft | 582 kts | 61° |
| 2026-04-23 22:44 | 35.72925 | -115.40143 | 38463 ft | 583 kts | 61° |
| 2026-04-23 22:45 | 35.74641 | -115.35612 | 38604 ft | 584 kts | 61° |
| 2026-04-23 22:45 | 35.76358 | -115.31086 | 38735 ft | 584 kts | 61° |
| 2026-04-23 22:45 | 35.78092 | -115.26536 | 38850 ft | 585 kts | 61° |
| 2026-04-23 22:45 | 35.79815 | -115.22006 | 38964 ft | 585 kts | 61° |
| 2026-04-23 22:46 | 35.81531 | -115.17467 | 39021 ft | 587 kts | 61° |
| 2026-04-23 22:46 | 35.84985 | -115.08322 | 39020 ft | 587 kts | 61° |
| 2026-04-23 22:47 | 35.88406 | -114.99252 | 38966 ft | 585 kts | 61° |
| 2026-04-23 22:47 | 35.91825 | -114.90147 | 38960 ft | 584 kts | 61° |
| 2026-04-23 22:48 | 35.95229 | -114.81069 | 38960 ft | 583 kts | 62° |
| 2026-04-23 22:48 | 35.98628 | -114.71969 | 38952 ft | 583 kts | 62° |
| 2026-04-23 22:49 | 36.02006 | -114.62904 | 38936 ft | 584 kts | 62° |
| 2026-04-23 22:49 | 36.05395 | -114.53779 | 38919 ft | 584 kts | 62° |
| 2026-04-23 22:50 | 36.08791 | -114.44615 | 38905 ft | 585 kts | 62° |
| 2026-04-23 22:50 | 36.12174 | -114.35454 | 38908 ft | 585 kts | 62° |
| 2026-04-23 22:51 | 36.15550 | -114.26289 | 38904 ft | 586 kts | 62° |
| 2026-04-23 22:51 | 36.18919 | -114.17112 | 38909 ft | 586 kts | 62° |
| 2026-04-23 22:52 | 36.22262 | -114.07982 | 38907 ft | 585 kts | 62° |
| 2026-04-23 22:52 | 36.25614 | -113.98801 | 38923 ft | 586 kts | 62° |
| 2026-04-23 22:53 | 36.28973 | -113.89569 | 38923 ft | 587 kts | 62° |
| 2026-04-23 22:53 | 36.32315 | -113.80359 | 38923 ft | 587 kts | 62° |
| 2026-04-23 22:54 | 36.35657 | -113.71123 | 38929 ft | 586 kts | 62° |
| 2026-04-23 22:54 | 36.38989 | -113.61886 | 38928 ft | 586 kts | 62° |
| 2026-04-23 22:55 | 36.42314 | -113.52642 | 38931 ft | 586 kts | 62° |
| 2026-04-23 22:55 | 36.45611 | -113.43446 | 38935 ft | 586 kts | 62° |
| 2026-04-23 22:56 | 36.48923 | -113.34180 | 38934 ft | 586 kts | 63° |
| 2026-04-23 22:56 | 36.51672 | -113.26472 | 38924 ft | 587 kts | 63° |
| 2026-04-23 22:57 | 36.54974 | -113.17182 | 38922 ft | 587 kts | 63° |
| 2026-04-23 22:57 | 36.58272 | -113.07878 | 38926 ft | 587 kts | 63° |
| 2026-04-23 22:58 | 36.61561 | -112.98571 | 38932 ft | 587 kts | 63° |
| 2026-04-23 22:58 | 36.64841 | -112.89260 | 38935 ft | 588 kts | 63° |
| 2026-04-23 22:59 | 36.68103 | -112.79971 | 38941 ft | 587 kts | 63° |
| 2026-04-23 22:59 | 36.71372 | -112.70634 | 38933 ft | 587 kts | 63° |
| 2026-04-23 23:00 | 36.74612 | -112.61354 | 38922 ft | 587 kts | 63° |
| 2026-04-23 23:00 | 36.77863 | -112.52008 | 38916 ft | 587 kts | 63° |
| 2026-04-23 23:01 | 36.81110 | -112.42649 | 38911 ft | 585 kts | 64° |
| 2026-04-23 23:01 | 36.84330 | -112.33339 | 38898 ft | 584 kts | 64° |
| 2026-04-23 23:02 | 36.87534 | -112.24047 | 38895 ft | 582 kts | 64° |
| 2026-04-23 23:02 | 36.90706 | -112.14815 | 38889 ft | 580 kts | 64° |
| 2026-04-23 23:03 | 36.93881 | -112.05550 | 38879 ft | 580 kts | 64° |
| 2026-04-23 23:03 | 36.97052 | -111.96268 | 38872 ft | 581 kts | 64° |
| 2026-04-23 23:04 | 37.00224 | -111.86953 | 38875 ft | 582 kts | 65° |
| 2026-04-23 23:04 | 37.03389 | -111.77627 | 38886 ft | 582 kts | 64° |
| 2026-04-23 23:05 | 37.06551 | -111.68282 | 38902 ft | 582 kts | 64° |
| 2026-04-23 23:05 | 37.09708 | -111.58922 | 38915 ft | 583 kts | 65° |
| 2026-04-23 23:06 | 37.12858 | -111.49556 | 38915 ft | 585 kts | 65° |
| 2026-04-23 23:06 | 37.16011 | -111.40146 | 38902 ft | 585 kts | 65° |
| 2026-04-23 23:07 | 37.19139 | -111.30787 | 38887 ft | 584 kts | 65° |
| 2026-04-23 23:07 | 37.22315 | -111.21423 | 38880 ft | 581 kts | 59° |
| 2026-04-23 23:08 | 37.25939 | -111.12371 | 38869 ft | 581 kts | 60° |
| 2026-04-23 23:08 | 37.29544 | -111.03296 | 38872 ft | 579 kts | 60° |
| 2026-04-23 23:09 | 37.33143 | -110.94231 | 38872 ft | 579 kts | 60° |
| 2026-04-23 23:09 | 37.36735 | -110.85149 | 38877 ft | 579 kts | 60° |
| 2026-04-23 23:10 | 37.40315 | -110.76073 | 38876 ft | 580 kts | 60° |
| 2026-04-23 23:10 | 37.43877 | -110.67018 | 38882 ft | 579 kts | 61° |
| 2026-04-23 23:11 | 37.47443 | -110.57926 | 38883 ft | 579 kts | 61° |
| 2026-04-23 23:11 | 37.51001 | -110.48826 | 38888 ft | 579 kts | 61° |
| 2026-04-23 23:12 | 37.54557 | -110.39707 | 38891 ft | 579 kts | 61° |
| 2026-04-23 23:12 | 37.58106 | -110.30577 | 38895 ft | 580 kts | 61° |
| 2026-04-23 23:13 | 37.61640 | -110.21461 | 38908 ft | 578 kts | 61° |
| 2026-04-23 23:13 | 37.65148 | -110.12385 | 38916 ft | 578 kts | 61° |
| 2026-04-23 23:14 | 37.68673 | -110.03239 | 38925 ft | 579 kts | 61° |
| 2026-04-23 23:14 | 37.72191 | -109.94083 | 38923 ft | 580 kts | 62° |
| 2026-04-23 23:15 | 37.75713 | -109.84887 | 38933 ft | 579 kts | 62° |
| 2026-04-23 23:15 | 37.79218 | -109.75712 | 38938 ft | 579 kts | 62° |
| 2026-04-23 23:16 | 37.82682 | -109.66616 | 38936 ft | 578 kts | 62° |
| 2026-04-23 23:16 | 37.86171 | -109.57425 | 38937 ft | 578 kts | 62° |
| 2026-04-23 23:17 | 37.89650 | -109.48236 | 38931 ft | 578 kts | 62° |
| 2026-04-23 23:17 | 37.92603 | -109.38735 | 38933 ft | 581 kts | 69° |
| 2026-04-23 23:18 | 37.95646 | -109.29272 | 38931 ft | 578 kts | 60° |
| 2026-04-23 23:18 | 37.99540 | -109.20423 | 38932 ft | 573 kts | 57° |
| 2026-04-23 23:19 | 38.03094 | -109.11375 | 38931 ft | 573 kts | 63° |
| 2026-04-23 23:19 | 38.06646 | -109.02352 | 38926 ft | 571 kts | 59° |
| 2026-04-23 23:20 | 38.10227 | -108.93400 | 38919 ft | 572 kts | 62° |
| 2026-04-23 23:20 | 38.13752 | -108.84333 | 38908 ft | 571 kts | 60° |
| 2026-04-23 23:21 | 38.17349 | -108.75284 | 38906 ft | 572 kts | 61° |
| 2026-04-23 23:21 | 38.20864 | -108.66223 | 38905 ft | 572 kts | 60° |
| 2026-04-23 23:22 | 38.24428 | -108.57165 | 38903 ft | 573 kts | 61° |
| 2026-04-23 23:22 | 38.27932 | -108.48118 | 38902 ft | 573 kts | 61° |
| 2026-04-23 23:23 | 38.31476 | -108.39022 | 38984 ft | 575 kts | 60° |
| 2026-04-23 23:23 | 38.35001 | -108.29893 | 38896 ft | 569 kts | 60° |
| 2026-04-23 23:24 | 38.38482 | -108.20885 | 38898 ft | 559 kts | 60° |
| 2026-04-23 23:24 | 38.40172 | -108.16492 | 38914 ft | 548 kts | 60° |
| 2026-04-23 23:24 | 38.41839 | -108.12151 | 38907 ft | 538 kts | 60° |
| 2026-04-23 23:25 | 38.45068 | -108.03749 | 38491 ft | 529 kts | 59° |
| 2026-04-23 23:25 | 38.46689 | -107.99520 | 38018 ft | 531 kts | 60° |
| 2026-04-23 23:25 | 38.48298 | -107.95268 | 37492 ft | 532 kts | 60° |
| 2026-04-23 23:25 | 38.49897 | -107.91008 | 36980 ft | 534 kts | 60° |
| 2026-04-23 23:26 | 38.51511 | -107.86728 | 36504 ft | 535 kts | 59° |
| 2026-04-23 23:26 | 38.53130 | -107.82454 | 35990 ft | 537 kts | 59° |
| 2026-04-23 23:26 | 38.54762 | -107.78126 | 35483 ft | 539 kts | 59° |
| 2026-04-23 23:26 | 38.56363 | -107.73856 | 34979 ft | 540 kts | 59° |
| 2026-04-23 23:27 | 38.58017 | -107.69445 | 34480 ft | 542 kts | 59° |
| 2026-04-23 23:27 | 38.59620 | -107.65176 | 33971 ft | 544 kts | 59° |
| 2026-04-23 23:27 | 38.61258 | -107.60808 | 33447 ft | 543 kts | 59° |
| 2026-04-23 23:27 | 38.62888 | -107.56438 | 33062 ft | 539 kts | 60° |
| 2026-04-23 23:28 | 38.64495 | -107.52125 | 32700 ft | 535 kts | 60° |
| 2026-04-23 23:28 | 38.66091 | -107.47851 | 32325 ft | 531 kts | 60° |
| 2026-04-23 23:28 | 38.67698 | -107.43610 | 31972 ft | 527 kts | 59° |
| 2026-04-23 23:28 | 38.69318 | -107.39386 | 30809 ft | 535 kts | 60° |
| 2026-04-23 23:29 | 38.70959 | -107.35059 | 30367 ft | 535 kts | 61° |
| 2026-04-23 23:29 | 38.72552 | -107.30798 | 30045 ft | 528 kts | 61° |
| 2026-04-23 23:29 | 38.74119 | -107.26633 | 29637 ft | 520 kts | 60° |
| 2026-04-23 23:29 | 38.75695 | -107.22477 | 29121 ft | 516 kts | 60° |
| 2026-04-23 23:30 | 38.77243 | -107.18368 | 29102 ft | 509 kts | 60° |
| 2026-04-23 23:30 | 38.80354 | -107.10077 | 29114 ft | 524 kts | 61° |
| 2026-04-23 23:31 | 38.83534 | -107.01577 | 29106 ft | 520 kts | 61° |
| 2026-04-23 23:31 | 38.85051 | -106.97500 | 29090 ft | 505 kts | 60° |
| 2026-04-23 23:31 | 38.86542 | -106.93504 | 29079 ft | 491 kts | 60° |
| 2026-04-23 23:31 | 38.88004 | -106.89592 | 29070 ft | 477 kts | 60° |
| 2026-04-23 23:32 | 38.89414 | -106.85801 | 29072 ft | 466 kts | 60° |
| 2026-04-23 23:32 | 38.92205 | -106.78293 | 29084 ft | 469 kts | 60° |
| 2026-04-23 23:33 | 38.95033 | -106.70659 | 29100 ft | 474 kts | 60° |
| 2026-04-23 23:33 | 38.97844 | -106.63047 | 29101 ft | 474 kts | 60° |
| 2026-04-23 23:34 | 39.00625 | -106.55494 | 29130 ft | 460 kts | 61° |
| 2026-04-23 23:34 | 39.03341 | -106.48075 | 29169 ft | 458 kts | 60° |
| 2026-04-23 23:35 | 39.06066 | -106.40620 | 29185 ft | 458 kts | 61° |
| 2026-04-23 23:35 | 39.08748 | -106.33255 | 29200 ft | 457 kts | 61° |
| 2026-04-23 23:35 | 39.10109 | -106.29519 | 28795 ft | 462 kts | 61° |
| 2026-04-23 23:36 | 39.11471 | -106.25767 | 28338 ft | 461 kts | 61° |
| 2026-04-23 23:36 | 39.12820 | -106.22044 | 27895 ft | 459 kts | 61° |
| 2026-04-23 23:36 | 39.14167 | -106.18326 | 27439 ft | 456 kts | 61° |
| 2026-04-23 23:36 | 39.15506 | -106.14626 | 26974 ft | 454 kts | 61° |
| 2026-04-23 23:37 | 39.16828 | -106.10959 | 26520 ft | 451 kts | 61° |
| 2026-04-23 23:37 | 39.18142 | -106.07297 | 26061 ft | 449 kts | 61° |
| 2026-04-23 23:37 | 39.19451 | -106.03649 | 25598 ft | 446 kts | 61° |
| 2026-04-23 23:37 | 39.20749 | -106.00036 | 25134 ft | 444 kts | 61° |
| 2026-04-23 23:38 | 39.22043 | -105.96428 | 24680 ft | 442 kts | 61° |
| 2026-04-23 23:38 | 39.23328 | -105.92834 | 24234 ft | 440 kts | 62° |
| 2026-04-23 23:38 | 39.24608 | -105.89257 | 23764 ft | 438 kts | 61° |
| 2026-04-23 23:38 | 39.25893 | -105.85703 | 23293 ft | 435 kts | 61° |
| 2026-04-23 23:39 | 39.27157 | -105.82220 | 22844 ft | 432 kts | 61° |
| 2026-04-23 23:39 | 39.28416 | -105.78714 | 22423 ft | 428 kts | 62° |
| 2026-04-23 23:39 | 39.29672 | -105.75203 | 21997 ft | 424 kts | 62° |
| 2026-04-23 23:39 | 39.30894 | -105.71798 | 21592 ft | 420 kts | 62° |
| 2026-04-23 23:40 | 39.32116 | -105.68397 | 21182 ft | 417 kts | 62° |
| 2026-04-23 23:40 | 39.33333 | -105.65011 | 20768 ft | 414 kts | 62° |
| 2026-04-23 23:40 | 39.34563 | -105.61664 | 20361 ft | 411 kts | 61° |
| 2026-04-23 23:40 | 39.35789 | -105.58339 | 19966 ft | 403 kts | 62° |
| 2026-04-23 23:41 | 39.36945 | -105.55150 | 19572 ft | 380 kts | 62° |
| 2026-04-23 23:41 | 39.38035 | -105.52135 | 19216 ft | 363 kts | 62° |
| 2026-04-23 23:41 | 39.39114 | -105.49182 | 18865 ft | 363 kts | 62° |
| 2026-04-23 23:41 | 39.40189 | -105.46242 | 18519 ft | 362 kts | 62° |
| 2026-04-23 23:42 | 39.41233 | -105.43288 | 18166 ft | 361 kts | 67° |
| 2026-04-23 23:42 | 39.41695 | -105.40145 | 17818 ft | 362 kts | 87° |
| 2026-04-23 23:42 | 39.41744 | -105.36847 | 17424 ft | 361 kts | 89° |
| 2026-04-23 23:42 | 39.41731 | -105.33650 | 17066 ft | 359 kts | 90° |
| 2026-04-23 23:43 | 39.41732 | -105.30420 | 16763 ft | 355 kts | 89° |
| 2026-04-23 23:43 | 39.41761 | -105.27258 | 16537 ft | 349 kts | 89° |
| 2026-04-23 23:43 | 39.41787 | -105.24144 | 16236 ft | 346 kts | 89° |
| 2026-04-23 23:43 | 39.41799 | -105.21028 | 15911 ft | 345 kts | 89° |
| 2026-04-23 23:44 | 39.41805 | -105.18987 | 15698 ft | 343 kts | 89° |
| 2026-04-23 23:44 | 39.41819 | -105.15886 | 15365 ft | 342 kts | 89° |
| 2026-04-23 23:44 | 39.41834 | -105.12851 | 15025 ft | 330 kts | 89° |
| 2026-04-23 23:44 | 39.41849 | -105.09054 | 14618 ft | 308 kts | 89° |
| 2026-04-23 23:45 | 39.41855 | -105.07240 | 14413 ft | 298 kts | 89° |
| 2026-04-23 23:45 | 39.41864 | -105.04606 | 14130 ft | 286 kts | 89° |
| 2026-04-23 23:45 | 39.41873 | -105.02059 | 13880 ft | 284 kts | 89° |
| 2026-04-23 23:45 | 39.41881 | -104.99496 | 13606 ft | 285 kts | 89° |
| 2026-04-23 23:46 | 39.41888 | -104.96930 | 13317 ft | 285 kts | 89° |
| 2026-04-23 23:46 | 39.41909 | -104.94371 | 13031 ft | 284 kts | 85° |
| 2026-04-23 23:46 | 39.42168 | -104.91855 | 12763 ft | 282 kts | 81° |
| 2026-04-23 23:46 | 39.42361 | -104.89344 | 12506 ft | 282 kts | 83° |
| 2026-04-23 23:47 | 39.42555 | -104.86820 | 12227 ft | 282 kts | 82° |
| 2026-04-23 23:47 | 39.42779 | -104.84305 | 11958 ft | 281 kts | 81° |
| 2026-04-23 23:47 | 39.43013 | -104.81796 | 11680 ft | 280 kts | 81° |
| 2026-04-23 23:48 | 39.44159 | -104.74230 | 11070 ft | 262 kts | 62° |
| 2026-04-23 23:48 | 39.44836 | -104.72065 | 11059 ft | 259 kts | 65° |
| 2026-04-23 23:48 | 39.45482 | -104.69905 | 11062 ft | 256 kts | 64° |
| 2026-04-23 23:49 | 39.47612 | -104.66520 | 11055 ft | 242 kts | 19° |
| 2026-04-23 23:49 | 39.49222 | -104.66070 | 11070 ft | 236 kts | 355° |
| 2026-04-23 23:49 | 39.50847 | -104.66337 | 11076 ft | 236 kts | 351° |
| 2026-04-23 23:50 | 39.52539 | -104.66395 | 11085 ft | 250 kts | 357° |
| 2026-04-23 23:50 | 39.54252 | -104.66377 | 10931 ft | 249 kts | 357° |
| 2026-04-23 23:50 | 39.55989 | -104.66359 | 10625 ft | 250 kts | 358° |
| 2026-04-23 23:50 | 39.57734 | -104.66340 | 10284 ft | 251 kts | 358° |
| 2026-04-23 23:51 | 39.59493 | -104.66321 | 9964 ft | 253 kts | 358° |
| 2026-04-23 23:51 | 39.61258 | -104.66303 | 9645 ft | 249 kts | 358° |
| 2026-04-23 23:51 | 39.62934 | -104.66282 | 9306 ft | 233 kts | 358° |
| 2026-04-23 23:51 | 39.64510 | -104.66261 | 8995 ft | 219 kts | 358° |
| 2026-04-23 23:52 | 39.65972 | -104.66243 | 8733 ft | 206 kts | 358° |
| 2026-04-23 23:52 | 39.67374 | -104.66224 | 8467 ft | 196 kts | 358° |
| 2026-04-23 23:52 | 39.68709 | -104.66207 | 8203 ft | 187 kts | 358° |
| 2026-04-23 23:52 | 39.69976 | -104.66192 | 7968 ft | 177 kts | 358° |
| 2026-04-23 23:53 | 39.71168 | -104.66175 | 7737 ft | 164 kts | 358° |
| 2026-04-23 23:53 | 39.72268 | -104.66165 | 7524 ft | 155 kts | 357° |
| 2026-04-23 23:53 | 39.73355 | -104.66155 | 7331 ft | 158 kts | 357° |
| 2026-04-23 23:53 | 39.74449 | -104.66145 | 7116 ft | 157 kts | 355° |
| 2026-04-23 23:54 | 39.75542 | -104.66143 | 6930 ft | 158 kts | 357° |
| 2026-04-23 23:54 | 39.76644 | -104.66125 | 6710 ft | 160 kts | 358° |
| 2026-04-23 23:54 | 39.77742 | -104.66117 | 6561 ft | 157 kts | 359° |
| 2026-04-23 23:54 | 39.78832 | -104.66085 | 6394 ft | 154 kts | 360° |
| 2026-04-23 23:55 | 39.79920 | -104.66077 | 6119 ft | 160 kts | 356° |
| 2026-04-23 23:55 | 39.81039 | -104.66065 | 5875 ft | 159 kts | 356° |
| 2026-04-23 23:55 | 39.82147 | -104.66056 | 5628 ft | 161 kts | 355° |
| 2026-04-23 23:55 | 39.83269 | -104.66043 | 5446 ft | 155 kts | 354° |
| 2026-04-23 23:56 | 39.84162 | -104.66042 | 5418 ft | 95 kts | 0° |
| 2026-04-23 23:56 | 39.84702 | -104.66049 | 5408 ft | 71 kts | 349° |
| 2026-04-23 23:56 | 39.85114 | -104.66255 | 5400 ft | 53 kts | 357° |
| 2026-04-23 23:56 | 39.85465 | -104.66249 | 5398 ft | 47 kts | 2° |
| 2026-04-23 23:57 | 39.85762 | -104.66238 | 5396 ft | 41 kts | 2° |
| 2026-04-23 23:57 | 39.86017 | -104.66243 | 5390 ft | 15 kts | 325° |
| 2026-04-23 23:57 | 39.86034 | -104.66313 | 5385 ft | 6 kts | 261° |
| 2026-04-23 23:57 | 39.86023 | -104.66403 | 5385 ft | 13 kts | 262° |
| 2026-04-23 23:58 | 39.86039 | -104.66525 | 5387 ft | 15 kts | 291° |
| 2026-04-23 23:58 | 39.86077 | -104.66658 | 5386 ft | 15 kts | 283° |
| 2026-04-23 23:58 | 39.86079 | -104.66791 | 5386 ft | 15 kts | 268° |
| 2026-04-23 23:58 | 39.86068 | -104.66958 | 5385 ft | 22 kts | 264° |
| 2026-04-23 23:59 | 39.86066 | -104.67143 | 5384 ft | 20 kts | 270° |
| 2026-04-23 23:59 | 39.86065 | -104.67330 | 5384 ft | 19 kts | 270° |
| 2026-04-23 23:59 | 39.86057 | -104.67446 | 5383 ft | 3 kts | 230° |
| 2026-04-23 23:59 | 39.86052 | -104.67450 | 5383 ft | 1 kts | 191° |
| 2026-04-24 00:00 | 39.86022 | -104.67451 | 5383 ft | 6 kts | 181° |
| 2026-04-24 00:00 | 39.85985 | -104.67451 | 5384 ft | 4 kts | 178° |
| 2026-04-24 00:00 | 39.85954 | -104.67450 | 5385 ft | 4 kts | 180° |
| 2026-04-24 00:00 | 39.85949 | -104.67450 | 5385 ft | 0 kts | 181° |
| 2026-04-24 00:03 | 39.85941 | -104.67451 | 5385 ft | 2 kts | 187° |